sensor_id;sensor_type;location;lat;lon;timestamp;pressure;altitude;pressure_sealevel;temperature;humidity
9141;BME280;46330;50.822;7.126;2023-07-24T00:00:00;99983.25;;;18.44;100.00
9141;BME280;46330;50.822;7.126;2023-07-24T00:02:30;99982.06;;;18.50;100.00
9141;BME280;46330;50.822;7.126;2023-07-24T00:04:58;99979.56;;;18.47;100.00
9141;BME280;46330;50.822;7.126;2023-07-24T00:07:26;99972.38;;;18.35;100.00
9141;BME280;46330;50.822;7.126;2023-07-24T00:09:54;99974.75;;;18.25;100.00
9141;BME280;46330;50.822;7.126;2023-07-24T00:12:23;99979.84;;;18.28;100.00
9141;BME280;46330;50.822;7.126;2023-07-24T00:14:52;99977.31;;;18.26;100.00
9141;BME280;46330;50.822;7.126;2023-07-24T00:17:21;99977.88;;;18.17;100.00
9141;BME280;46330;50.822;7.126;2023-07-24T00:19:49;99980.41;;;18.19;100.00
9141;BME280;46330;50.822;7.126;2023-07-24T00:22:17;99964.16;;;18.25;100.00
9141;BME280;46330;50.822;7.126;2023-07-24T00:24:45;99961.44;;;18.26;100.00
9141;BME280;46330;50.822;7.126;2023-07-24T00:27:13;99961.69;;;18.22;100.00
9141;BME280;46330;50.822;7.126;2023-07-24T00:29:41;99958.50;;;18.17;100.00
9141;BME280;46330;50.822;7.126;2023-07-24T00:32:10;99951.41;;;18.17;100.00
9141;BME280;46330;50.822;7.126;2023-07-24T00:34:39;99946.13;;;18.17;100.00
9141;BME280;46330;50.822;7.126;2023-07-24T00:37:07;99949.03;;;18.13;100.00
9141;BME280;46330;50.822;7.126;2023-07-24T00:39:35;99951.41;;;18.17;100.00
9141;BME280;46330;50.822;7.126;2023-07-24T00:42:03;99960.09;;;18.19;100.00
9141;BME280;46330;50.822;7.126;2023-07-24T00:44:31;99957.44;;;18.19;100.00
9141;BME280;46330;50.822;7.126;2023-07-24T00:46:59;99957.63;;;18.16;100.00
9141;BME280;46330;50.822;7.126;2023-07-24T00:49:27;99956.59;;;18.19;100.00
9141;BME280;46330;50.822;7.126;2023-07-24T00:51:57;99952.63;;;18.26;100.00
9141;BME280;46330;50.822;7.126;2023-07-24T00:54:27;99941.09;;;18.27;100.00
9141;BME280;46330;50.822;7.126;2023-07-24T00:56:57;99941.09;;;18.27;100.00
9141;BME280;46330;50.822;7.126;2023-07-24T00:59:26;99942.97;;;18.25;100.00
9141;BME280;46330;50.822;7.126;2023-07-24T01:01:55;99943.94;;;18.24;100.00
9141;BME280;46330;50.822;7.126;2023-07-24T01:04:23;99939.66;;;18.21;100.00
9141;BME280;46330;50.822;7.126;2023-07-24T01:06:51;99933.53;;;18.21;100.00
9141;BME280;46330;50.822;7.126;2023-07-24T01:09:21;99933.81;;;18.16;100.00
9141;BME280;46330;50.822;7.126;2023-07-24T01:11:54;99924.34;;;18.12;100.00
9141;BME280;46330;50.822;7.126;2023-07-24T01:14:26;99923.88;;;18.06;100.00
9141;BME280;46330;50.822;7.126;2023-07-24T01:16:58;99912.84;;;17.99;100.00
9141;BME280;46330;50.822;7.126;2023-07-24T01:19:36;99914.03;;;17.94;100.00
9141;BME280;46330;50.822;7.126;2023-07-24T01:22:12;99912.25;;;17.94;100.00
9141;BME280;46330;50.822;7.126;2023-07-24T01:25:01;99904.31;;;17.94;100.00
9141;BME280;46330;50.822;7.126;2023-07-24T01:27:31;99899.41;;;17.88;100.00
9141;BME280;46330;50.822;7.126;2023-07-24T01:29:59;99896.75;;;17.88;100.00
9141;BME280;46330;50.822;7.126;2023-07-24T01:32:27;99892.56;;;17.84;100.00
9141;BME280;46330;50.822;7.126;2023-07-24T01:34:55;99892.38;;;17.87;100.00
9141;BME280;46330;50.822;7.126;2023-07-24T01:37:25;99883.44;;;17.90;100.00
9141;BME280;46330;50.822;7.126;2023-07-24T01:39:54;99883.34;;;17.91;100.00
9141;BME280;46330;50.822;7.126;2023-07-24T01:42:23;99885.97;;;17.91;100.00
9141;BME280;46330;50.822;7.126;2023-07-24T01:44:54;99885.03;;;17.92;100.00
9141;BME280;46330;50.822;7.126;2023-07-24T01:47:22;99884.00;;;17.95;100.00
9141;BME280;46330;50.822;7.126;2023-07-24T01:49:50;99884.84;;;17.95;100.00
9141;BME280;46330;50.822;7.126;2023-07-24T01:52:19;99884.19;;;17.92;100.00
9141;BME280;46330;50.822;7.126;2023-07-24T01:54:47;99884.94;;;17.94;100.00
9141;BME280;46330;50.822;7.126;2023-07-24T01:57:15;99889.22;;;17.96;100.00
9141;BME280;46330;50.822;7.126;2023-07-24T01:59:43;99878.50;;;17.98;100.00
9141;BME280;46330;50.822;7.126;2023-07-24T02:02:13;99882.22;;;17.95;100.00
9141;BME280;46330;50.822;7.126;2023-07-24T02:04:41;99884.56;;;18.00;100.00
9141;BME280;46330;50.822;7.126;2023-07-24T02:07:09;99882.69;;;18.02;100.00
9141;BME280;46330;50.822;7.126;2023-07-24T02:09:37;99876.16;;;18.07;100.00
9141;BME280;46330;50.822;7.126;2023-07-24T02:12:06;99882.19;;;18.09;100.00
9141;BME280;46330;50.822;7.126;2023-07-24T02:14:34;99880.22;;;18.13;100.00
9141;BME280;46330;50.822;7.126;2023-07-24T02:17:02;99879.94;;;18.17;100.00
9141;BME280;46330;50.822;7.126;2023-07-24T02:19:31;99873.97;;;18.14;100.00
9141;BME280;46330;50.822;7.126;2023-07-24T02:21:59;99870.47;;;18.13;100.00
9141;BME280;46330;50.822;7.126;2023-07-24T02:24:27;99864.50;;;18.10;100.00
9141;BME280;46330;50.822;7.126;2023-07-24T02:26:57;99860.00;;;18.12;100.00
9141;BME280;46330;50.822;7.126;2023-07-24T02:29:25;99875.97;;;18.10;100.00
9141;BME280;46330;50.822;7.126;2023-07-24T02:31:54;99879.06;;;18.03;100.00
9141;BME280;46330;50.822;7.126;2023-07-24T02:34:22;99885.88;;;18.07;100.00
9141;BME280;46330;50.822;7.126;2023-07-24T02:36:54;99871.78;;;18.06;100.00
9141;BME280;46330;50.822;7.126;2023-07-24T02:39:22;99857.25;;;17.99;100.00
9141;BME280;46330;50.822;7.126;2023-07-24T02:41:50;99852.16;;;17.96;100.00
9141;BME280;46330;50.822;7.126;2023-07-24T02:44:18;99835.50;;;17.94;100.00
9141;BME280;46330;50.822;7.126;2023-07-24T02:46:46;99834.75;;;17.92;100.00
9141;BME280;46330;50.822;7.126;2023-07-24T02:49:14;99839.88;;;17.95;100.00
9141;BME280;46330;50.822;7.126;2023-07-24T02:51:41;99834.66;;;17.94;100.00
9141;BME280;46330;50.822;7.126;2023-07-24T02:54:11;99823.59;;;17.87;100.00
9141;BME280;46330;50.822;7.126;2023-07-24T02:56:39;99828.06;;;17.87;100.00
9141;BME280;46330;50.822;7.126;2023-07-24T02:59:06;99815.66;;;17.87;100.00
9141;BME280;46330;50.822;7.126;2023-07-24T03:01:34;99803.09;;;17.91;100.00
9141;BME280;46330;50.822;7.126;2023-07-24T03:04:03;99803.00;;;17.92;100.00
9141;BME280;46330;50.822;7.126;2023-07-24T03:06:32;99803.00;;;17.92;100.00
9141;BME280;46330;50.822;7.126;2023-07-24T03:09:00;99802.16;;;17.92;100.00
9141;BME280;46330;50.822;7.126;2023-07-24T03:11:29;99801.88;;;17.96;100.00
9141;BME280;46330;50.822;7.126;2023-07-24T03:13:57;99788.72;;;17.95;100.00
9141;BME280;46330;50.822;7.126;2023-07-24T03:16:25;99791.50;;;17.93;100.00
9141;BME280;46330;50.822;7.126;2023-07-24T03:18:54;99796.94;;;17.90;100.00
9141;BME280;46330;50.822;7.126;2023-07-24T03:21:22;99786.47;;;17.89;100.00
9141;BME280;46330;50.822;7.126;2023-07-24T03:23:49;99783.56;;;17.79;100.00
9141;BME280;46330;50.822;7.126;2023-07-24T03:26:18;99782.69;;;17.79;100.00
9141;BME280;46330;50.822;7.126;2023-07-24T03:28:47;99780.34;;;17.74;100.00
9141;BME280;46330;50.822;7.126;2023-07-24T03:31:16;99777.41;;;17.79;100.00
9141;BME280;46330;50.822;7.126;2023-07-24T03:33:44;99780.81;;;17.81;100.00
9141;BME280;46330;50.822;7.126;2023-07-24T03:36:12;99771.56;;;17.73;100.00
9141;BME280;46330;50.822;7.126;2023-07-24T03:38:41;99774.88;;;17.77;100.00
9141;BME280;46330;50.822;7.126;2023-07-24T03:41:09;99769.78;;;17.74;100.00
9141;BME280;46330;50.822;7.126;2023-07-24T03:43:37;99761.91;;;17.72;100.00
9141;BME280;46330;50.822;7.126;2023-07-24T03:46:06;99770.91;;;17.70;100.00
9141;BME280;46330;50.822;7.126;2023-07-24T03:48:34;99792.34;;;17.65;100.00
9141;BME280;46330;50.822;7.126;2023-07-24T03:51:03;99781.13;;;17.62;100.00
9141;BME280;46330;50.822;7.126;2023-07-24T03:53:31;99774.00;;;17.62;100.00
9141;BME280;46330;50.822;7.126;2023-07-24T03:55:59;99776.56;;;17.64;100.00
9141;BME280;46330;50.822;7.126;2023-07-24T03:58:27;99766.94;;;17.63;100.00
9141;BME280;46330;50.822;7.126;2023-07-24T04:00:55;99761.63;;;17.63;100.00
9141;BME280;46330;50.822;7.126;2023-07-24T04:03:24;99764.75;;;17.69;100.00
9141;BME280;46330;50.822;7.126;2023-07-24T04:05:52;99770.91;;;17.70;100.00
9141;BME280;46330;50.822;7.126;2023-07-24T04:08:20;99769.84;;;17.72;100.00
9141;BME280;46330;50.822;7.126;2023-07-24T04:10:48;99759.28;;;17.72;100.00
9141;BME280;46330;50.822;7.126;2023-07-24T04:13:16;99760.78;;;17.77;100.00
9141;BME280;46330;50.822;7.126;2023-07-24T04:15:44;99757.84;;;17.81;100.00
9141;BME280;46330;50.822;7.126;2023-07-24T04:18:12;99769.38;;;17.80;100.00
9141;BME280;46330;50.822;7.126;2023-07-24T04:20:41;99767.50;;;17.82;100.00
9141;BME280;46330;50.822;7.126;2023-07-24T04:23:09;99769.84;;;17.87;100.00
9141;BME280;46330;50.822;7.126;2023-07-24T04:25:37;99768.03;;;17.87;100.00
9141;BME280;46330;50.822;7.126;2023-07-24T04:28:05;99781.25;;;17.87;100.00
9141;BME280;46330;50.822;7.126;2023-07-24T04:30:33;99780.13;;;17.91;100.00
9141;BME280;46330;50.822;7.126;2023-07-24T04:33:01;99771.16;;;17.94;100.00
9141;BME280;46330;50.822;7.126;2023-07-24T04:35:29;99774.19;;;18.02;100.00
9141;BME280;46330;50.822;7.126;2023-07-24T04:37:58;99782.84;;;18.04;100.00
9141;BME280;46330;50.822;7.126;2023-07-24T04:40:26;99791.38;;;18.09;100.00
9141;BME280;46330;50.822;7.126;2023-07-24T04:42:54;99808.75;;;18.13;100.00
9141;BME280;46330;50.822;7.126;2023-07-24T04:45:22;99809.72;;;18.12;100.00
9141;BME280;46330;50.822;7.126;2023-07-24T04:47:50;99801.56;;;18.15;100.00
9141;BME280;46330;50.822;7.126;2023-07-24T04:50:18;99802.31;;;18.17;100.00
9141;BME280;46330;50.822;7.126;2023-07-24T04:52:46;99800.22;;;18.22;100.00
9141;BME280;46330;50.822;7.126;2023-07-24T04:55:15;99798.88;;;18.29;100.00
9141;BME280;46330;50.822;7.126;2023-07-24T04:57:43;99821.78;;;18.30;100.00
9141;BME280;46330;50.822;7.126;2023-07-24T05:00:12;99806.94;;;18.27;100.00
9141;BME280;46330;50.822;7.126;2023-07-24T05:02:40;99806.44;;;18.35;100.00
9141;BME280;46330;50.822;7.126;2023-07-24T05:05:09;99807.16;;;18.37;100.00
9141;BME280;46330;50.822;7.126;2023-07-24T05:07:37;99802.53;;;18.41;100.00
9141;BME280;46330;50.822;7.126;2023-07-24T05:10:05;99798.53;;;18.48;100.00
9141;BME280;46330;50.822;7.126;2023-07-24T05:12:35;99797.88;;;18.58;100.00
9141;BME280;46330;50.822;7.126;2023-07-24T05:15:04;99800.63;;;18.57;99.98
9141;BME280;46330;50.822;7.126;2023-07-24T05:17:32;99805.56;;;18.75;100.00
9141;BME280;46330;50.822;7.126;2023-07-24T05:20:00;99813.75;;;18.85;98.81
9141;BME280;46330;50.822;7.126;2023-07-24T05:22:28;99815.94;;;19.05;96.89
9141;BME280;46330;50.822;7.126;2023-07-24T05:24:55;99819.19;;;19.48;93.71
9141;BME280;46330;50.822;7.126;2023-07-24T05:27:23;99812.84;;;20.12;92.19
9141;BME280;46330;50.822;7.126;2023-07-24T05:29:53;99821.00;;;20.34;87.09
9141;BME280;46330;50.822;7.126;2023-07-24T05:32:21;99820.25;;;20.69;85.83
9141;BME280;46330;50.822;7.126;2023-07-24T05:34:49;99827.53;;;20.78;84.96
9141;BME280;46330;50.822;7.126;2023-07-24T05:37:17;99828.41;;;20.89;81.44
9141;BME280;46330;50.822;7.126;2023-07-24T05:39:45;99838.88;;;21.27;79.60
9141;BME280;46330;50.822;7.126;2023-07-24T05:42:12;99841.31;;;21.07;81.89
9141;BME280;46330;50.822;7.126;2023-07-24T05:44:40;99830.34;;;20.87;82.26
9141;BME280;46330;50.822;7.126;2023-07-24T05:47:10;99830.78;;;21.40;78.72
9141;BME280;46330;50.822;7.126;2023-07-24T05:49:37;99831.97;;;21.36;76.96
9141;BME280;46330;50.822;7.126;2023-07-24T05:52:08;99844.72;;;21.09;76.87
9141;BME280;46330;50.822;7.126;2023-07-24T05:54:36;99841.03;;;20.99;78.42
9141;BME280;46330;50.822;7.126;2023-07-24T05:57:04;99852.06;;;20.81;79.20
9141;BME280;46330;50.822;7.126;2023-07-24T05:59:32;99847.94;;;20.54;79.80
9141;BME280;46330;50.822;7.126;2023-07-24T06:02:00;99851.94;;;20.83;79.66
9141;BME280;46330;50.822;7.126;2023-07-24T06:04:30;99850.47;;;21.03;79.58
9141;BME280;46330;50.822;7.126;2023-07-24T06:06:58;99853.94;;;21.16;79.04
9141;BME280;46330;50.822;7.126;2023-07-24T06:09:26;99852.47;;;20.88;78.19
9141;BME280;46330;50.822;7.126;2023-07-24T06:11:54;99858.16;;;20.71;79.32
9141;BME280;46330;50.822;7.126;2023-07-24T06:14:22;99848.78;;;20.54;79.53
9141;BME280;46330;50.822;7.126;2023-07-24T06:16:50;99858.66;;;20.52;78.73
9141;BME280;46330;50.822;7.126;2023-07-24T06:19:18;99847.72;;;20.80;78.82
9141;BME280;46330;50.822;7.126;2023-07-24T06:21:47;99854.69;;;20.94;76.89
9141;BME280;46330;50.822;7.126;2023-07-24T06:24:15;99858.50;;;21.37;76.60
9141;BME280;46330;50.822;7.126;2023-07-24T06:26:43;99863.00;;;21.48;74.41
9141;BME280;46330;50.822;7.126;2023-07-24T06:29:11;99850.81;;;21.22;75.04
9141;BME280;46330;50.822;7.126;2023-07-24T06:31:39;99861.47;;;20.98;75.59
9141;BME280;46330;50.822;7.126;2023-07-24T06:34:06;99858.41;;;21.15;75.98
9141;BME280;46330;50.822;7.126;2023-07-24T06:36:34;99856.13;;;21.11;75.91
9141;BME280;46330;50.822;7.126;2023-07-24T06:39:04;99845.25;;;21.14;76.30
9141;BME280;46330;50.822;7.126;2023-07-24T06:41:32;99839.41;;;20.85;75.89
9141;BME280;46330;50.822;7.126;2023-07-24T06:44:01;99845.69;;;20.84;76.92
9141;BME280;46330;50.822;7.126;2023-07-24T06:46:29;99851.19;;;20.70;77.44
9141;BME280;46330;50.822;7.126;2023-07-24T06:48:57;99854.69;;;20.70;78.10
9141;BME280;46330;50.822;7.126;2023-07-24T06:51:25;99852.81;;;20.60;78.20
9141;BME280;46330;50.822;7.126;2023-07-24T06:53:53;99856.81;;;20.65;77.53
9141;BME280;46330;50.822;7.126;2023-07-24T06:56:22;99853.47;;;20.74;77.96
9141;BME280;46330;50.822;7.126;2023-07-24T06:58:50;99855.22;;;20.86;77.98
9141;BME280;46330;50.822;7.126;2023-07-24T07:01:18;99844.28;;;20.67;78.45
9141;BME280;46330;50.822;7.126;2023-07-24T07:03:46;99842.28;;;20.82;78.38
9141;BME280;46330;50.822;7.126;2023-07-24T07:06:14;99840.03;;;21.12;77.39
9141;BME280;46330;50.822;7.126;2023-07-24T07:08:45;99838.22;;;21.13;76.86
9141;BME280;46330;50.822;7.126;2023-07-24T07:11:13;99828.75;;;21.43;75.95
9141;BME280;46330;50.822;7.126;2023-07-24T07:13:42;99833.84;;;21.58;75.41
9141;BME280;46330;50.822;7.126;2023-07-24T07:16:10;99831.66;;;21.52;72.22
9141;BME280;46330;50.822;7.126;2023-07-24T07:18:38;99834.22;;;21.42;72.90
9141;BME280;46330;50.822;7.126;2023-07-24T07:21:06;99830.84;;;21.51;71.30
9141;BME280;46330;50.822;7.126;2023-07-24T07:23:34;99829.88;;;21.63;71.76
9141;BME280;46330;50.822;7.126;2023-07-24T07:26:01;99833.06;;;21.79;72.08
9141;BME280;46330;50.822;7.126;2023-07-24T07:28:29;99834.88;;;21.79;71.81
9141;BME280;46330;50.822;7.126;2023-07-24T07:30:59;99825.13;;;21.56;72.06
9141;BME280;46330;50.822;7.126;2023-07-24T07:33:27;99825.19;;;21.67;71.69
9141;BME280;46330;50.822;7.126;2023-07-24T07:35:56;99820.19;;;21.51;72.43
9141;BME280;46330;50.822;7.126;2023-07-24T07:38:25;99826.47;;;21.61;71.21
9141;BME280;46330;50.822;7.126;2023-07-24T07:40:53;99812.09;;;21.64;71.68
9141;BME280;46330;50.822;7.126;2023-07-24T07:43:21;99809.31;;;21.54;71.21
9141;BME280;46330;50.822;7.126;2023-07-24T07:45:49;99807.38;;;21.56;72.53
9141;BME280;46330;50.822;7.126;2023-07-24T07:48:18;99804.94;;;21.64;72.90
9141;BME280;46330;50.822;7.126;2023-07-24T07:50:50;99807.63;;;21.75;72.65
9141;BME280;46330;50.822;7.126;2023-07-24T07:53:18;99798.78;;;21.64;70.64
9141;BME280;46330;50.822;7.126;2023-07-24T07:55:46;99792.72;;;21.51;71.84
9141;BME280;46330;50.822;7.126;2023-07-24T07:58:14;99793.81;;;21.59;72.52
9141;BME280;46330;50.822;7.126;2023-07-24T08:00:42;99800.38;;;21.66;71.81
9141;BME280;46330;50.822;7.126;2023-07-24T08:03:10;99803.06;;;22.00;72.00
9141;BME280;46330;50.822;7.126;2023-07-24T08:05:39;99800.06;;;22.47;69.52
9141;BME280;46330;50.822;7.126;2023-07-24T08:08:07;99797.69;;;22.65;67.31
9141;BME280;46330;50.822;7.126;2023-07-24T08:10:37;99796.06;;;22.52;65.91
9141;BME280;46330;50.822;7.126;2023-07-24T08:13:05;99789.50;;;22.57;66.83
9141;BME280;46330;50.822;7.126;2023-07-24T08:15:35;99794.41;;;22.83;65.69
9141;BME280;46330;50.822;7.126;2023-07-24T08:18:03;99803.16;;;23.06;64.65
9141;BME280;46330;50.822;7.126;2023-07-24T08:20:34;99802.78;;;22.79;67.03
9141;BME280;46330;50.822;7.126;2023-07-24T08:23:04;99818.72;;;22.47;66.70
9141;BME280;46330;50.822;7.126;2023-07-24T08:25:32;99809.16;;;22.44;66.86
9141;BME280;46330;50.822;7.126;2023-07-24T08:28:00;99805.41;;;22.36;66.62
9141;BME280;46330;50.822;7.126;2023-07-24T08:30:32;99795.50;;;22.38;67.61
9141;BME280;46330;50.822;7.126;2023-07-24T08:33:00;99790.72;;;22.52;67.10
9141;BME280;46330;50.822;7.126;2023-07-24T08:35:28;99785.59;;;22.72;66.51
9141;BME280;46330;50.822;7.126;2023-07-24T08:37:56;99778.31;;;23.47;63.95
9141;BME280;46330;50.822;7.126;2023-07-24T08:40:25;99768.28;;;23.70;61.79
9141;BME280;46330;50.822;7.126;2023-07-24T08:42:54;99766.72;;;24.07;61.37
9141;BME280;46330;50.822;7.126;2023-07-24T08:45:23;99761.38;;;24.47;57.49
9141;BME280;46330;50.822;7.126;2023-07-24T08:47:52;99774.50;;;24.98;57.25
9141;BME280;46330;50.822;7.126;2023-07-24T08:50:20;99765.72;;;24.48;57.30
9141;BME280;46330;50.822;7.126;2023-07-24T08:52:48;99766.19;;;24.63;56.89
9141;BME280;46330;50.822;7.126;2023-07-24T08:55:17;99753.91;;;24.31;57.41
9141;BME280;46330;50.822;7.126;2023-07-24T08:57:47;99760.81;;;24.53;58.05
9141;BME280;46330;50.822;7.126;2023-07-24T09:00:15;99773.41;;;24.13;58.70
9141;BME280;46330;50.822;7.126;2023-07-24T09:02:43;99772.22;;;24.05;56.57
9141;BME280;46330;50.822;7.126;2023-07-24T09:05:12;99769.09;;;23.61;58.93
9141;BME280;46330;50.822;7.126;2023-07-24T09:07:42;99770.50;;;23.95;57.92
9141;BME280;46330;50.822;7.126;2023-07-24T09:10:10;99765.91;;;23.76;57.47
9141;BME280;46330;50.822;7.126;2023-07-24T09:12:38;99763.25;;;23.76;58.18
9141;BME280;46330;50.822;7.126;2023-07-24T09:15:11;99763.41;;;24.15;57.71
9141;BME280;46330;50.822;7.126;2023-07-24T09:17:47;99761.75;;;24.23;57.75
9141;BME280;46330;50.822;7.126;2023-07-24T09:20:16;99750.50;;;24.29;58.88
9141;BME280;46330;50.822;7.126;2023-07-24T09:22:57;99738.28;;;23.87;55.90
9141;BME280;46330;50.822;7.126;2023-07-24T09:25:32;99742.84;;;24.05;56.40
9141;BME280;46330;50.822;7.126;2023-07-24T09:28:08;99737.72;;;23.93;56.24
9141;BME280;46330;50.822;7.126;2023-07-24T09:30:38;99736.50;;;23.67;56.35
9141;BME280;46330;50.822;7.126;2023-07-24T09:33:06;99736.53;;;23.76;58.53
9141;BME280;46330;50.822;7.126;2023-07-24T09:35:34;99725.06;;;23.95;58.57
9141;BME280;46330;50.822;7.126;2023-07-24T09:38:04;99717.91;;;23.95;58.94
9141;BME280;46330;50.822;7.126;2023-07-24T09:40:39;99716.81;;;24.07;58.20
9141;BME280;46330;50.822;7.126;2023-07-24T09:43:20;99718.50;;;23.59;60.08
9141;BME280;46330;50.822;7.126;2023-07-24T09:46:07;99707.00;;;23.38;58.93
9141;BME280;46330;50.822;7.126;2023-07-24T09:48:37;99708.31;;;23.43;60.24
9141;BME280;46330;50.822;7.126;2023-07-24T09:51:11;99698.53;;;23.33;59.19
9141;BME280;46330;50.822;7.126;2023-07-24T09:53:43;99697.94;;;23.29;61.43
9141;BME280;46330;50.822;7.126;2023-07-24T09:56:14;99702.25;;;23.41;61.05
9141;BME280;46330;50.822;7.126;2023-07-24T09:58:44;99703.25;;;23.40;59.73
9141;BME280;46330;50.822;7.126;2023-07-24T10:01:15;99704.00;;;23.52;59.89
9141;BME280;46330;50.822;7.126;2023-07-24T10:03:46;99698.88;;;23.79;57.54
9141;BME280;46330;50.822;7.126;2023-07-24T10:06:15;99688.59;;;24.24;55.63
9141;BME280;46330;50.822;7.126;2023-07-24T10:08:44;99685.50;;;24.48;55.82
9141;BME280;46330;50.822;7.126;2023-07-24T10:11:14;99691.56;;;24.59;56.01
9141;BME280;46330;50.822;7.126;2023-07-24T10:13:42;99688.63;;;24.63;55.51
9141;BME280;46330;50.822;7.126;2023-07-24T10:16:10;99686.50;;;24.47;56.75
9141;BME280;46330;50.822;7.126;2023-07-24T10:18:44;99688.47;;;24.54;54.32
9141;BME280;46330;50.822;7.126;2023-07-24T10:21:12;99681.00;;;24.96;54.87
9141;BME280;46330;50.822;7.126;2023-07-24T10:23:42;99677.53;;;25.23;53.23
9141;BME280;46330;50.822;7.126;2023-07-24T10:26:10;99670.66;;;26.65;47.48
9141;BME280;46330;50.822;7.126;2023-07-24T10:28:39;99674.34;;;28.17;45.33
9141;BME280;46330;50.822;7.126;2023-07-24T10:31:19;99658.53;;;29.35;42.91
9141;BME280;46330;50.822;7.126;2023-07-24T10:33:49;99647.38;;;30.16;39.68
9141;BME280;46330;50.822;7.126;2023-07-24T10:36:19;99654.88;;;30.28;39.05
9141;BME280;46330;50.822;7.126;2023-07-24T10:38:52;99646.50;;;29.54;40.67
9141;BME280;46330;50.822;7.126;2023-07-24T10:41:20;99647.97;;;29.01;40.51
9141;BME280;46330;50.822;7.126;2023-07-24T10:43:49;99648.84;;;26.86;44.80
9141;BME280;46330;50.822;7.126;2023-07-24T10:46:20;99643.13;;;26.81;46.84
9141;BME280;46330;50.822;7.126;2023-07-24T10:48:50;99637.09;;;27.12;44.96
9141;BME280;46330;50.822;7.126;2023-07-24T10:51:18;99642.47;;;26.69;45.57
9141;BME280;46330;50.822;7.126;2023-07-24T10:53:47;99638.00;;;26.52;45.89
9141;BME280;46330;50.822;7.126;2023-07-24T10:56:17;99637.56;;;26.21;47.51
9141;BME280;46330;50.822;7.126;2023-07-24T10:58:44;99642.94;;;25.39;47.98
9141;BME280;46330;50.822;7.126;2023-07-24T11:01:12;99640.72;;;25.25;49.79
9141;BME280;46330;50.822;7.126;2023-07-24T11:03:42;99642.69;;;25.33;50.29
9141;BME280;46330;50.822;7.126;2023-07-24T11:06:16;99633.50;;;24.98;50.11
9141;BME280;46330;50.822;7.126;2023-07-24T11:08:50;99623.75;;;25.07;50.79
9141;BME280;46330;50.822;7.126;2023-07-24T11:11:19;99626.31;;;26.17;47.51
9141;BME280;46330;50.822;7.126;2023-07-24T11:13:47;99604.53;;;27.07;45.76
9141;BME280;46330;50.822;7.126;2023-07-24T11:16:14;99597.66;;;27.13;44.99
9141;BME280;46330;50.822;7.126;2023-07-24T11:18:46;99587.34;;;26.74;46.31
9141;BME280;46330;50.822;7.126;2023-07-24T11:21:22;99579.53;;;26.55;46.54
9141;BME280;46330;50.822;7.126;2023-07-24T11:23:51;99577.47;;;26.14;46.69
9141;BME280;46330;50.822;7.126;2023-07-24T11:26:20;99574.91;;;25.59;47.17
9141;BME280;46330;50.822;7.126;2023-07-24T11:28:48;99579.78;;;25.46;47.49
9141;BME280;46330;50.822;7.126;2023-07-24T11:31:16;99576.22;;;25.55;48.22
9141;BME280;46330;50.822;7.126;2023-07-24T11:33:47;99571.06;;;25.72;48.00
9141;BME280;46330;50.822;7.126;2023-07-24T11:36:15;99565.53;;;26.26;47.07
9141;BME280;46330;50.822;7.126;2023-07-24T11:38:46;99564.25;;;26.30;46.54
9141;BME280;46330;50.822;7.126;2023-07-24T11:41:15;99567.91;;;26.29;46.11
9141;BME280;46330;50.822;7.126;2023-07-24T11:43:48;99566.81;;;26.83;44.56
9141;BME280;46330;50.822;7.126;2023-07-24T11:46:23;99582.53;;;26.35;45.95
9141;BME280;46330;50.822;7.126;2023-07-24T11:48:52;99591.09;;;26.38;46.24
9141;BME280;46330;50.822;7.126;2023-07-24T11:51:25;99584.00;;;25.49;47.08
9141;BME280;46330;50.822;7.126;2023-07-24T11:54:05;99591.22;;;25.66;47.00
9141;BME280;46330;50.822;7.126;2023-07-24T11:56:34;99581.19;;;25.41;47.29
9141;BME280;46330;50.822;7.126;2023-07-24T11:59:10;99585.78;;;25.31;49.59
9141;BME280;46330;50.822;7.126;2023-07-24T12:01:38;99579.41;;;25.04;48.75
9141;BME280;46330;50.822;7.126;2023-07-24T12:04:06;99577.75;;;25.31;48.82
9141;BME280;46330;50.822;7.126;2023-07-24T12:06:34;99576.59;;;25.60;48.79
9141;BME280;46330;50.822;7.126;2023-07-24T12:09:02;99577.66;;;26.30;46.44
9141;BME280;46330;50.822;7.126;2023-07-24T12:11:32;99587.72;;;26.01;47.38
9141;BME280;46330;50.822;7.126;2023-07-24T12:14:00;99600.34;;;25.73;47.82
9141;BME280;46330;50.822;7.126;2023-07-24T12:16:28;99602.75;;;25.49;49.76
9141;BME280;46330;50.822;7.126;2023-07-24T12:18:57;99621.84;;;25.63;49.71
9141;BME280;46330;50.822;7.126;2023-07-24T12:21:25;99633.75;;;25.14;50.77
9141;BME280;46330;50.822;7.126;2023-07-24T12:23:53;99660.03;;;24.15;57.81
9141;BME280;46330;50.822;7.126;2023-07-24T12:26:21;99654.16;;;23.32;62.22
9141;BME280;46330;50.822;7.126;2023-07-24T12:28:53;99665.59;;;22.72;66.42
9141;BME280;46330;50.822;7.126;2023-07-24T12:31:21;99683.50;;;22.49;69.11
9141;BME280;46330;50.822;7.126;2023-07-24T12:33:49;99663.22;;;22.58;69.58
9141;BME280;46330;50.822;7.126;2023-07-24T12:36:17;99653.25;;;22.71;70.30
9141;BME280;46330;50.822;7.126;2023-07-24T12:38:45;99651.59;;;22.59;72.74
9141;BME280;46330;50.822;7.126;2023-07-24T12:41:15;99639.72;;;22.83;74.74
9141;BME280;46330;50.822;7.126;2023-07-24T12:43:43;99636.47;;;22.80;75.68
9141;BME280;46330;50.822;7.126;2023-07-24T12:46:13;99626.69;;;22.48;76.63
9141;BME280;46330;50.822;7.126;2023-07-24T12:48:41;99631.41;;;22.45;76.19
9141;BME280;46330;50.822;7.126;2023-07-24T12:51:09;99648.75;;;22.19;75.77
9141;BME280;46330;50.822;7.126;2023-07-24T12:53:37;99648.41;;;22.44;74.68
9141;BME280;46330;50.822;7.126;2023-07-24T12:56:23;99637.28;;;22.60;75.56
9141;BME280;46330;50.822;7.126;2023-07-24T12:58:51;99623.72;;;23.14;73.21
9141;BME280;46330;50.822;7.126;2023-07-24T13:01:20;99622.09;;;23.62;70.98
9141;BME280;46330;50.822;7.126;2023-07-24T13:03:48;99639.13;;;23.71;70.07
9141;BME280;46330;50.822;7.126;2023-07-24T13:06:16;99658.34;;;23.25;71.23
9141;BME280;46330;50.822;7.126;2023-07-24T13:08:44;99656.91;;;22.59;75.46
9141;BME280;46330;50.822;7.126;2023-07-24T13:11:12;99651.63;;;22.27;76.15
9141;BME280;46330;50.822;7.126;2023-07-24T13:13:40;99622.81;;;22.21;77.41
9141;BME280;46330;50.822;7.126;2023-07-24T13:16:08;99637.16;;;22.40;78.10